sensor_id;sensor_type;location;lat;lon;timestamp;P1;durP1;ratioP1;P2;durP2;ratioP2
815;SDS011;25928;51.062;13.752;2022-12-18T00:01:05;34.63;;;20.77;;
815;SDS011;25928;51.062;13.752;2022-12-18T00:03:39;37.07;;;22.60;;
815;SDS011;25928;51.062;13.752;2022-12-18T00:06:05;37.20;;;21.80;;
815;SDS011;25928;51.062;13.752;2022-12-18T00:08:30;33.50;;;19.93;;
815;SDS011;25928;51.062;13.752;2022-12-18T00:11:02;40.40;;;22.37;;
815;SDS011;25928;51.062;13.752;2022-12-18T00:13:29;37.90;;;22.07;;
815;SDS011;25928;51.062;13.752;2022-12-18T00:15:55;39.53;;;22.90;;
815;SDS011;25928;51.062;13.752;2022-12-18T00:18:25;34.43;;;21.17;;
815;SDS011;25928;51.062;13.752;2022-12-18T00:20:51;40.07;;;22.93;;
815;SDS011;25928;51.062;13.752;2022-12-18T00:23:17;37.30;;;21.47;;
815;SDS011;25928;51.062;13.752;2022-12-18T00:25:42;40.83;;;22.00;;
815;SDS011;25928;51.062;13.752;2022-12-18T00:28:08;42.53;;;22.47;;
815;SDS011;25928;51.062;13.752;2022-12-18T00:30:33;40.63;;;22.17;;
815;SDS011;25928;51.062;13.752;2022-12-18T00:32:59;41.47;;;23.50;;
815;SDS011;25928;51.062;13.752;2022-12-18T00:35:24;47.50;;;23.87;;
815;SDS011;25928;51.062;13.752;2022-12-18T00:37:50;37.67;;;24.33;;
815;SDS011;25928;51.062;13.752;2022-12-18T00:40:16;36.53;;;22.40;;
815;SDS011;25928;51.062;13.752;2022-12-18T00:42:41;38.10;;;21.73;;
815;SDS011;25928;51.062;13.752;2022-12-18T00:45:29;35.57;;;21.57;;
815;SDS011;25928;51.062;13.752;2022-12-18T00:47:55;44.70;;;22.93;;
815;SDS011;25928;51.062;13.752;2022-12-18T00:50:22;41.10;;;22.17;;
815;SDS011;25928;51.062;13.752;2022-12-18T00:52:49;30.27;;;19.37;;
815;SDS011;25928;51.062;13.752;2022-12-18T00:55:15;33.80;;;21.37;;
815;SDS011;25928;51.062;13.752;2022-12-18T00:57:41;35.77;;;21.00;;
815;SDS011;25928;51.062;13.752;2022-12-18T01:00:07;38.70;;;20.23;;
815;SDS011;25928;51.062;13.752;2022-12-18T01:02:36;34.60;;;19.73;;
815;SDS011;25928;51.062;13.752;2022-12-18T01:05:02;31.53;;;19.80;;
815;SDS011;25928;51.062;13.752;2022-12-18T01:07:28;36.23;;;21.13;;
815;SDS011;25928;51.062;13.752;2022-12-18T01:09:54;45.33;;;22.23;;
815;SDS011;25928;51.062;13.752;2022-12-18T01:12:19;31.90;;;18.43;;
815;SDS011;25928;51.062;13.752;2022-12-18T01:14:45;36.60;;;19.33;;
815;SDS011;25928;51.062;13.752;2022-12-18T01:17:11;39.87;;;19.13;;
815;SDS011;25928;51.062;13.752;2022-12-18T01:19:36;34.90;;;19.47;;
815;SDS011;25928;51.062;13.752;2022-12-18T01:22:02;35.00;;;18.97;;
815;SDS011;25928;51.062;13.752;2022-12-18T01:24:28;39.83;;;22.10;;
815;SDS011;25928;51.062;13.752;2022-12-18T01:26:54;33.40;;;19.93;;
815;SDS011;25928;51.062;13.752;2022-12-18T01:29:19;30.60;;;18.27;;
815;SDS011;25928;51.062;13.752;2022-12-18T01:31:45;38.20;;;21.50;;
815;SDS011;25928;51.062;13.752;2022-12-18T01:34:10;34.13;;;19.70;;
815;SDS011;25928;51.062;13.752;2022-12-18T01:36:37;35.03;;;17.90;;
815;SDS011;25928;51.062;13.752;2022-12-18T01:39:07;28.93;;;18.13;;
815;SDS011;25928;51.062;13.752;2022-12-18T01:41:36;29.23;;;15.70;;
815;SDS011;25928;51.062;13.752;2022-12-18T01:47:15;31.00;;;16.93;;
815;SDS011;25928;51.062;13.752;2022-12-18T01:49:55;31.03;;;17.47;;
815;SDS011;25928;51.062;13.752;2022-12-18T01:52:23;24.43;;;14.50;;
815;SDS011;25928;51.062;13.752;2022-12-18T01:54:51;27.07;;;15.63;;
815;SDS011;25928;51.062;13.752;2022-12-18T01:57:18;31.00;;;16.03;;
815;SDS011;25928;51.062;13.752;2022-12-18T01:59:44;31.30;;;17.70;;
815;SDS011;25928;51.062;13.752;2022-12-18T02:02:12;27.20;;;15.17;;
815;SDS011;25928;51.062;13.752;2022-12-18T02:04:39;24.27;;;15.10;;
815;SDS011;25928;51.062;13.752;2022-12-18T02:07:17;26.47;;;16.23;;
815;SDS011;25928;51.062;13.752;2022-12-18T02:10:07;27.77;;;17.10;;
815;SDS011;25928;51.062;13.752;2022-12-18T02:12:48;27.13;;;15.07;;
815;SDS011;25928;51.062;13.752;2022-12-18T02:15:26;27.37;;;16.30;;
815;SDS011;25928;51.062;13.752;2022-12-18T02:18:07;27.13;;;15.17;;
815;SDS011;25928;51.062;13.752;2022-12-18T02:26:26;28.77;;;15.30;;
815;SDS011;25928;51.062;13.752;2022-12-18T02:29:08;21.80;;;14.43;;
815;SDS011;25928;51.062;13.752;2022-12-18T02:31:41;22.27;;;12.90;;
815;SDS011;25928;51.062;13.752;2022-12-18T02:34:12;24.60;;;12.73;;
815;SDS011;25928;51.062;13.752;2022-12-18T02:36:39;28.47;;;13.77;;
815;SDS011;25928;51.062;13.752;2022-12-18T02:39:07;21.03;;;12.53;;
815;SDS011;25928;51.062;13.752;2022-12-18T02:41:36;18.10;;;11.63;;
815;SDS011;25928;51.062;13.752;2022-12-18T02:44:06;20.83;;;11.40;;
815;SDS011;25928;51.062;13.752;2022-12-18T02:46:46;23.87;;;12.20;;
815;SDS011;25928;51.062;13.752;2022-12-18T02:49:24;22.90;;;12.10;;
815;SDS011;25928;51.062;13.752;2022-12-18T02:52:07;20.97;;;11.47;;
815;SDS011;25928;51.062;13.752;2022-12-18T02:55:26;17.47;;;11.17;;
815;SDS011;25928;51.062;13.752;2022-12-18T03:03:55;20.47;;;12.57;;
815;SDS011;25928;51.062;13.752;2022-12-18T03:06:32;18.53;;;11.07;;
815;SDS011;25928;51.062;13.752;2022-12-18T03:09:02;20.77;;;11.97;;
815;SDS011;25928;51.062;13.752;2022-12-18T03:11:40;19.23;;;10.73;;
815;SDS011;25928;51.062;13.752;2022-12-18T03:14:29;20.20;;;11.17;;
815;SDS011;25928;51.062;13.752;2022-12-18T03:16:57;21.27;;;11.27;;
815;SDS011;25928;51.062;13.752;2022-12-18T03:19:28;23.93;;;12.13;;
815;SDS011;25928;51.062;13.752;2022-12-18T03:21:57;22.07;;;11.53;;
815;SDS011;25928;51.062;13.752;2022-12-18T03:24:26;20.13;;;11.57;;
815;SDS011;25928;51.062;13.752;2022-12-18T03:26:56;17.73;;;11.47;;
815;SDS011;25928;51.062;13.752;2022-12-18T03:29:35;22.47;;;11.67;;
815;SDS011;25928;51.062;13.752;2022-12-18T03:32:09;16.63;;;9.73;;
815;SDS011;25928;51.062;13.752;2022-12-18T03:34:37;20.10;;;10.77;;
815;SDS011;25928;51.062;13.752;2022-12-18T03:37:06;21.30;;;10.97;;
815;SDS011;25928;51.062;13.752;2022-12-18T03:39:32;18.00;;;10.10;;
815;SDS011;25928;51.062;13.752;2022-12-18T03:42:01;17.23;;;10.33;;
815;SDS011;25928;51.062;13.752;2022-12-18T03:47:39;16.97;;;10.10;;
815;SDS011;25928;51.062;13.752;2022-12-18T03:56:07;20.83;;;12.67;;
815;SDS011;25928;51.062;13.752;2022-12-18T03:58:35;20.90;;;11.60;;
815;SDS011;25928;51.062;13.752;2022-12-18T04:01:03;19.80;;;12.30;;
815;SDS011;25928;51.062;13.752;2022-12-18T04:03:32;16.53;;;9.97;;
815;SDS011;25928;51.062;13.752;2022-12-18T04:06:00;16.00;;;9.63;;
815;SDS011;25928;51.062;13.752;2022-12-18T04:08:27;20.53;;;11.43;;
815;SDS011;25928;51.062;13.752;2022-12-18T04:10:54;24.40;;;13.50;;
815;SDS011;25928;51.062;13.752;2022-12-18T04:13:24;23.43;;;12.40;;
815;SDS011;25928;51.062;13.752;2022-12-18T04:15:52;22.47;;;11.63;;
815;SDS011;25928;51.062;13.752;2022-12-18T04:18:18;23.97;;;10.93;;
815;SDS011;25928;51.062;13.752;2022-12-18T04:20:44;19.60;;;10.67;;
815;SDS011;25928;51.062;13.752;2022-12-18T04:23:09;17.67;;;10.93;;
815;SDS011;25928;51.062;13.752;2022-12-18T04:25:35;23.30;;;12.40;;
815;SDS011;25928;51.062;13.752;2022-12-18T04:28:00;19.43;;;11.17;;
815;SDS011;25928;51.062;13.752;2022-12-18T04:30:26;22.20;;;12.40;;
815;SDS011;25928;51.062;13.752;2022-12-18T04:32:51;17.73;;;9.83;;
815;SDS011;25928;51.062;13.752;2022-12-18T04:35:17;20.57;;;11.30;;
815;SDS011;25928;51.062;13.752;2022-12-18T04:37:43;18.03;;;11.23;;
815;SDS011;25928;51.062;13.752;2022-12-18T04:40:08;17.00;;;10.27;;
815;SDS011;25928;51.062;13.752;2022-12-18T04:42:34;16.40;;;11.47;;
815;SDS011;25928;51.062;13.752;2022-12-18T04:45:00;20.07;;;11.10;;
815;SDS011;25928;51.062;13.752;2022-12-18T04:47:25;16.93;;;11.60;;
815;SDS011;25928;51.062;13.752;2022-12-18T04:49:51;22.43;;;12.17;;
815;SDS011;25928;51.062;13.752;2022-12-18T04:52:17;15.47;;;9.67;;
815;SDS011;25928;51.062;13.752;2022-12-18T04:54:42;17.93;;;10.23;;
815;SDS011;25928;51.062;13.752;2022-12-18T04:57:08;17.93;;;8.97;;
815;SDS011;25928;51.062;13.752;2022-12-18T04:59:33;16.47;;;8.87;;
815;SDS011;25928;51.062;13.752;2022-12-18T05:01:59;17.43;;;9.73;;
815;SDS011;25928;51.062;13.752;2022-12-18T05:04:25;20.67;;;9.83;;
815;SDS011;25928;51.062;13.752;2022-12-18T05:06:50;15.23;;;9.20;;
815;SDS011;25928;51.062;13.752;2022-12-18T05:09:16;16.93;;;10.60;;
815;SDS011;25928;51.062;13.752;2022-12-18T05:11:41;13.77;;;8.27;;
815;SDS011;25928;51.062;13.752;2022-12-18T05:14:07;14.37;;;9.73;;
815;SDS011;25928;51.062;13.752;2022-12-18T05:16:33;15.10;;;10.40;;
815;SDS011;25928;51.062;13.752;2022-12-18T05:18:59;17.33;;;9.70;;
815;SDS011;25928;51.062;13.752;2022-12-18T05:21:24;16.07;;;9.30;;
815;SDS011;25928;51.062;13.752;2022-12-18T05:23:50;16.43;;;8.87;;
815;SDS011;25928;51.062;13.752;2022-12-18T05:26:16;15.50;;;8.87;;
815;SDS011;25928;51.062;13.752;2022-12-18T05:28:45;17.90;;;9.53;;
815;SDS011;25928;51.062;13.752;2022-12-18T05:31:11;21.50;;;10.37;;
815;SDS011;25928;51.062;13.752;2022-12-18T05:33:37;15.00;;;8.83;;
815;SDS011;25928;51.062;13.752;2022-12-18T05:36:05;17.13;;;8.67;;
815;SDS011;25928;51.062;13.752;2022-12-18T05:38:32;13.93;;;8.03;;
815;SDS011;25928;51.062;13.752;2022-12-18T05:41:00;18.43;;;8.80;;
815;SDS011;25928;51.062;13.752;2022-12-18T05:43:25;17.20;;;10.30;;
815;SDS011;25928;51.062;13.752;2022-12-18T05:45:52;15.90;;;10.07;;
815;SDS011;25928;51.062;13.752;2022-12-18T05:48:18;21.67;;;9.83;;
815;SDS011;25928;51.062;13.752;2022-12-18T05:50:44;20.73;;;10.77;;
815;SDS011;25928;51.062;13.752;2022-12-18T05:53:11;20.03;;;10.60;;
815;SDS011;25928;51.062;13.752;2022-12-18T05:55:38;20.00;;;11.03;;
815;SDS011;25928;51.062;13.752;2022-12-18T05:58:05;15.23;;;9.17;;
815;SDS011;25928;51.062;13.752;2022-12-18T06:00:33;15.43;;;8.97;;
815;SDS011;25928;51.062;13.752;2022-12-18T06:03:00;17.97;;;10.87;;
815;SDS011;25928;51.062;13.752;2022-12-18T06:05:26;16.63;;;8.20;;
815;SDS011;25928;51.062;13.752;2022-12-18T06:07:52;15.50;;;8.57;;
815;SDS011;25928;51.062;13.752;2022-12-18T06:10:18;15.33;;;8.73;;
815;SDS011;25928;51.062;13.752;2022-12-18T06:12:44;15.10;;;8.63;;
815;SDS011;25928;51.062;13.752;2022-12-18T06:15:10;13.60;;;8.33;;
815;SDS011;25928;51.062;13.752;2022-12-18T06:17:36;14.10;;;8.60;;
815;SDS011;25928;51.062;13.752;2022-12-18T06:20:02;14.30;;;8.20;;
815;SDS011;25928;51.062;13.752;2022-12-18T06:22:30;14.57;;;8.90;;
815;SDS011;25928;51.062;13.752;2022-12-18T06:24:57;14.63;;;8.20;;
815;SDS011;25928;51.062;13.752;2022-12-18T06:27:22;20.07;;;9.70;;
815;SDS011;25928;51.062;13.752;2022-12-18T06:29:48;15.50;;;9.17;;
815;SDS011;25928;51.062;13.752;2022-12-18T06:32:14;20.50;;;9.77;;
815;SDS011;25928;51.062;13.752;2022-12-18T06:34:39;12.27;;;8.13;;
815;SDS011;25928;51.062;13.752;2022-12-18T06:37:05;12.50;;;7.20;;
815;SDS011;25928;51.062;13.752;2022-12-18T06:39:31;15.90;;;9.47;;
815;SDS011;25928;51.062;13.752;2022-12-18T06:41:56;18.50;;;9.50;;
815;SDS011;25928;51.062;13.752;2022-12-18T06:44:22;14.67;;;9.03;;
815;SDS011;25928;51.062;13.752;2022-12-18T06:46:48;15.83;;;8.03;;
815;SDS011;25928;51.062;13.752;2022-12-18T06:49:14;17.60;;;9.67;;
815;SDS011;25928;51.062;13.752;2022-12-18T06:51:41;13.30;;;7.67;;
815;SDS011;25928;51.062;13.752;2022-12-18T06:54:07;18.50;;;9.87;;
815;SDS011;25928;51.062;13.752;2022-12-18T06:56:32;16.60;;;8.20;;
815;SDS011;25928;51.062;13.752;2022-12-18T06:58:59;18.63;;;8.93;;
815;SDS011;25928;51.062;13.752;2022-12-18T07:01:25;12.60;;;8.20;;
815;SDS011;25928;51.062;13.752;2022-12-18T07:03:51;12.13;;;8.07;;
815;SDS011;25928;51.062;13.752;2022-12-18T07:06:19;19.27;;;9.27;;
815;SDS011;25928;51.062;13.752;2022-12-18T07:08:46;14.27;;;8.40;;
815;SDS011;25928;51.062;13.752;2022-12-18T07:11:14;17.87;;;9.93;;
815;SDS011;25928;51.062;13.752;2022-12-18T07:13:40;15.23;;;8.00;;
815;SDS011;25928;51.062;13.752;2022-12-18T07:16:09;15.47;;;8.47;;
815;SDS011;25928;51.062;13.752;2022-12-18T07:18:40;17.13;;;9.60;;
815;SDS011;25928;51.062;13.752;2022-12-18T07:21:06;12.80;;;8.10;;
815;SDS011;25928;51.062;13.752;2022-12-18T07:23:34;16.73;;;9.70;;
815;SDS011;25928;51.062;13.752;2022-12-18T07:26:04;18.70;;;9.63;;
815;SDS011;25928;51.062;13.752;2022-12-18T07:28:32;13.20;;;8.43;;
815;SDS011;25928;51.062;13.752;2022-12-18T07:31:02;28.40;;;9.60;;
815;SDS011;25928;51.062;13.752;2022-12-18T07:33:28;18.23;;;10.73;;
815;SDS011;25928;51.062;13.752;2022-12-18T07:35:54;14.23;;;8.80;;
815;SDS011;25928;51.062;13.752;2022-12-18T07:38:20;16.00;;;10.47;;
815;SDS011;25928;51.062;13.752;2022-12-18T07:40:46;15.57;;;8.73;;
815;SDS011;25928;51.062;13.752;2022-12-18T07:43:11;18.83;;;10.03;;
815;SDS011;25928;51.062;13.752;2022-12-18T07:45:37;19.77;;;9.30;;
815;SDS011;25928;51.062;13.752;2022-12-18T07:48:03;18.03;;;9.57;;
815;SDS011;25928;51.062;13.752;2022-12-18T07:50:29;14.17;;;8.93;;
815;SDS011;25928;51.062;13.752;2022-12-18T07:52:54;15.27;;;9.70;;
815;SDS011;25928;51.062;13.752;2022-12-18T07:55:20;18.20;;;9.47;;
815;SDS011;25928;51.062;13.752;2022-12-18T07:57:46;14.80;;;8.83;;
815;SDS011;25928;51.062;13.752;2022-12-18T08:00:11;20.80;;;10.80;;
815;SDS011;25928;51.062;13.752;2022-12-18T08:02:37;14.80;;;9.90;;
815;SDS011;25928;51.062;13.752;2022-12-18T08:05:03;15.37;;;9.63;;
815;SDS011;25928;51.062;13.752;2022-12-18T08:07:29;20.23;;;10.83;;
815;SDS011;25928;51.062;13.752;2022-12-18T08:09:54;14.70;;;9.20;;
815;SDS011;25928;51.062;13.752;2022-12-18T08:12:20;15.10;;;9.73;;
815;SDS011;25928;51.062;13.752;2022-12-18T08:14:46;18.20;;;10.73;;
815;SDS011;25928;51.062;13.752;2022-12-18T08:17:11;17.83;;;10.83;;
815;SDS011;25928;51.062;13.752;2022-12-18T08:19:37;15.80;;;9.83;;
815;SDS011;25928;51.062;13.752;2022-12-18T08:22:02;22.77;;;11.17;;
815;SDS011;25928;51.062;13.752;2022-12-18T08:24:28;19.03;;;11.23;;
815;SDS011;25928;51.062;13.752;2022-12-18T08:26:53;18.20;;;10.37;;
815;SDS011;25928;51.062;13.752;2022-12-18T08:29:19;17.27;;;10.57;;
815;SDS011;25928;51.062;13.752;2022-12-18T08:31:45;16.47;;;10.63;;
815;SDS011;25928;51.062;13.752;2022-12-18T08:34:11;19.50;;;12.37;;
815;SDS011;25928;51.062;13.752;2022-12-18T08:36:36;17.47;;;10.80;;
815;SDS011;25928;51.062;13.752;2022-12-18T08:39:02;21.50;;;11.23;;
815;SDS011;25928;51.062;13.752;2022-12-18T08:41:27;23.47;;;11.60;;
815;SDS011;25928;51.062;13.752;2022-12-18T08:43:53;24.03;;;13.03;;
815;SDS011;25928;51.062;13.752;2022-12-18T08:46:39;23.47;;;12.40;;
815;SDS011;25928;51.062;13.752;2022-12-18T08:49:06;20.90;;;12.50;;
815;SDS011;25928;51.062;13.752;2022-12-18T08:51:33;21.33;;;12.47;;
815;SDS011;25928;51.062;13.752;2022-12-18T08:53:59;20.00;;;13.47;;
815;SDS011;25928;51.062;13.752;2022-12-18T08:56:25;22.30;;;13.40;;
815;SDS011;25928;51.062;13.752;2022-12-18T08:58:52;17.90;;;14.10;;
815;SDS011;25928;51.062;13.752;2022-12-18T09:01:18;26.13;;;15.70;;
815;SDS011;25928;51.062;13.752;2022-12-18T09:03:44;25.23;;;14.80;;
815;SDS011;25928;51.062;13.752;2022-12-18T09:06:13;25.80;;;14.60;;
815;SDS011;25928;51.062;13.752;2022-12-18T09:08:41;23.10;;;14.23;;
815;SDS011;25928;51.062;13.752;2022-12-18T09:11:14;24.73;;;13.10;;
815;SDS011;25928;51.062;13.752;2022-12-18T09:13:45;24.30;;;14.40;;
815;SDS011;25928;51.062;13.752;2022-12-18T09:16:11;22.43;;;14.53;;
815;SDS011;25928;51.062;13.752;2022-12-18T09:18:36;28.73;;;16.13;;
815;SDS011;25928;51.062;13.752;2022-12-18T09:21:35;20.60;;;13.87;;
815;SDS011;25928;51.062;13.752;2022-12-18T09:23:55;27.03;;;15.73;;
815;SDS011;25928;51.062;13.752;2022-12-18T09:26:22;25.43;;;15.57;;
815;SDS011;25928;51.062;13.752;2022-12-18T09:28:49;30.83;;;17.40;;
815;SDS011;25928;51.062;13.752;2022-12-18T09:31:15;26.87;;;16.23;;
815;SDS011;25928;51.062;13.752;2022-12-18T09:33:42;20.53;;;14.70;;
815;SDS011;25928;51.062;13.752;2022-12-18T09:36:09;26.97;;;15.77;;
815;SDS011;25928;51.062;13.752;2022-12-18T09:38:36;30.20;;;16.87;;
815;SDS011;25928;51.062;13.752;2022-12-18T09:41:06;30.70;;;18.73;;
815;SDS011;25928;51.062;13.752;2022-12-18T09:43:50;28.97;;;16.10;;
815;SDS011;25928;51.062;13.752;2022-12-18T09:46:20;36.40;;;17.47;;
815;SDS011;25928;51.062;13.752;2022-12-18T09:49:00;33.40;;;19.10;;
815;SDS011;25928;51.062;13.752;2022-12-18T09:51:32;29.17;;;17.27;;
815;SDS011;25928;51.062;13.752;2022-12-18T09:54:12;28.43;;;17.03;;
815;SDS011;25928;51.062;13.752;2022-12-18T09:56:44;38.10;;;18.47;;
815;SDS011;25928;51.062;13.752;2022-12-18T09:59:16;31.80;;;19.23;;
815;SDS011;25928;51.062;13.752;2022-12-18T10:01:57;32.97;;;19.03;;
815;SDS011;25928;51.062;13.752;2022-12-18T10:04:23;32.33;;;17.90;;
815;SDS011;25928;51.062;13.752;2022-12-18T10:06:52;32.83;;;17.47;;
815;SDS011;25928;51.062;13.752;2022-12-18T10:09:53;28.30;;;15.97;;
815;SDS011;25928;51.062;13.752;2022-12-18T10:17:32;27.33;;;15.03;;
815;SDS011;25928;51.062;13.752;2022-12-18T10:20:21;28.53;;;14.83;;
815;SDS011;25928;51.062;13.752;2022-12-18T10:28:33;32.80;;;16.80;;
815;SDS011;25928;51.062;13.752;2022-12-18T10:31:01;28.10;;;15.47;;
815;SDS011;25928;51.062;13.752;2022-12-18T10:33:31;30.40;;;16.67;;
815;SDS011;25928;51.062;13.752;2022-12-18T10:35:58;22.93;;;14.10;;
815;SDS011;25928;51.062;13.752;2022-12-18T10:38:26;27.17;;;16.50;;
815;SDS011;25928;51.062;13.752;2022-12-18T10:48:31;30.47;;;16.07;;
815;SDS011;25928;51.062;13.752;2022-12-18T10:50:58;27.57;;;15.73;;
815;SDS011;25928;51.062;13.752;2022-12-18T10:53:25;26.80;;;17.17;;
815;SDS011;25928;51.062;13.752;2022-12-18T10:55:53;31.23;;;16.53;;
815;SDS011;25928;51.062;13.752;2022-12-18T10:58:25;27.40;;;15.70;;
815;SDS011;25928;51.062;13.752;2022-12-18T11:01:04;29.83;;;16.90;;
815;SDS011;25928;51.062;13.752;2022-12-18T11:03:58;25.37;;;16.90;;
815;SDS011;25928;51.062;13.752;2022-12-18T11:06:26;33.73;;;16.47;;
815;SDS011;25928;51.062;13.752;2022-12-18T11:11:24;25.70;;;16.30;;
815;SDS011;25928;51.062;13.752;2022-12-18T11:13:58;33.97;;;18.87;;
815;SDS011;25928;51.062;13.752;2022-12-18T11:16:42;26.10;;;15.20;;
815;SDS011;25928;51.062;13.752;2022-12-18T11:19:20;28.60;;;16.60;;
815;SDS011;25928;51.062;13.752;2022-12-18T11:21:49;26.70;;;15.13;;
815;SDS011;25928;51.062;13.752;2022-12-18T11:24:18;27.77;;;15.93;;
815;SDS011;25928;51.062;13.752;2022-12-18T11:27:00;32.90;;;16.50;;
815;SDS011;25928;51.062;13.752;2022-12-18T11:29:39;28.00;;;15.73;;
815;SDS011;25928;51.062;13.752;2022-12-18T11:34:41;31.57;;;16.70;;
815;SDS011;25928;51.062;13.752;2022-12-18T11:37:10;35.83;;;16.90;;
815;SDS011;25928;51.062;13.752;2022-12-18T11:42:32;23.57;;;14.20;;
815;SDS011;25928;51.062;13.752;2022-12-18T11:50:24;31.10;;;16.67;;
815;SDS011;25928;51.062;13.752;2022-12-18T11:52:54;31.37;;;15.50;;
815;SDS011;25928;51.062;13.752;2022-12-18T11:57:54;32.67;;;16.80;;
815;SDS011;25928;51.062;13.752;2022-12-18T12:00:50;30.10;;;16.00;;
815;SDS011;25928;51.062;13.752;2022-12-18T12:03:50;27.37;;;14.87;;
815;SDS011;25928;51.062;13.752;2022-12-18T12:09:22;25.43;;;14.57;;
815;SDS011;25928;51.062;13.752;2022-12-18T12:20:25;27.73;;;14.50;;
815;SDS011;25928;51.062;13.752;2022-12-18T12:25:36;26.80;;;14.40;;
815;SDS011;25928;51.062;13.752;2022-12-18T12:28:19;25.70;;;15.07;;
815;SDS011;25928;51.062;13.752;2022-12-18T12:34:19;27.37;;;15.13;;
815;SDS011;25928;51.062;13.752;2022-12-18T12:40:00;33.80;;;15.47;;
815;SDS011;25928;51.062;13.752;2022-12-18T12:42:41;24.37;;;14.43;;
815;SDS011;25928;51.062;13.752;2022-12-18T12:45:36;25.57;;;15.77;;
815;SDS011;25928;51.062;13.752;2022-12-18T12:48:05;27.03;;;15.00;;
815;SDS011;25928;51.062;13.752;2022-12-18T12:50:38;25.00;;;16.13;;
815;SDS011;25928;51.062;13.752;2022-12-18T12:53:06;24.67;;;14.27;;
815;SDS011;25928;51.062;13.752;2022-12-18T12:55:39;27.30;;;15.47;;
815;SDS011;25928;51.062;13.752;2022-12-18T12:58:17;29.00;;;15.20;;
815;SDS011;25928;51.062;13.752;2022-12-18T13:00:55;23.50;;;14.40;;
815;SDS011;25928;51.062;13.752;2022-12-18T13:03:46;25.60;;;14.23;;
815;SDS011;25928;51.062;13.752;2022-12-18T13:09:11;26.47;;;14.37;;
815;SDS011;25928;51.062;13.752;2022-12-18T13:11:38;21.87;;;13.37;;
815;SDS011;25928;51.062;13.752;2022-12-18T13:14:24;26.40;;;15.17;;
815;SDS011;25928;51.062;13.752;2022-12-18T13:19:39;26.60;;;14.40;;
815;SDS011;25928;51.062;13.752;2022-12-18T13:22:12;24.70;;;13.73;;
815;SDS011;25928;51.062;13.752;2022-12-18T13:24:45;31.80;;;15.47;;
815;SDS011;25928;51.062;13.752;2022-12-18T13:27:58;26.97;;;15.43;;
815;SDS011;25928;51.062;13.752;2022-12-18T13:35:40;25.97;;;15.40;;
815;SDS011;25928;51.062;13.752;2022-12-18T13:40:56;25.77;;;14.20;;
815;SDS011;25928;51.062;13.752;2022-12-18T13:45:49;25.97;;;15.80;;
815;SDS011;25928;51.062;13.752;2022-12-18T13:48:20;28.93;;;15.30;;
815;SDS011;25928;51.062;13.752;2022-12-18T13:51:06;26.07;;;13.30;;
815;SDS011;25928;51.062;13.752;2022-12-18T13:54:18;24.27;;;14.27;;
815;SDS011;25928;51.062;13.752;2022-12-18T13:56:29;24.47;;;12.00;;
815;SDS011;25928;51.062;13.752;2022-12-18T13:59:03;24.30;;;14.50;;
815;SDS011;25928;51.062;13.752;2022-12-18T14:01:55;21.73;;;13.10;;
815;SDS011;25928;51.062;13.752;2022-12-18T14:04:29;23.90;;;12.90;;
815;SDS011;25928;51.062;13.752;2022-12-18T14:07:02;21.80;;;12.70;;
815;SDS011;25928;51.062;13.752;2022-12-18T14:09:35;24.60;;;13.37;;
815;SDS011;25928;51.062;13.752;2022-12-18T14:12:06;26.90;;;13.20;;
815;SDS011;25928;51.062;13.752;2022-12-18T14:14:58;22.20;;;12.67;;
815;SDS011;25928;51.062;13.752;2022-12-18T14:17:24;24.70;;;11.83;;
815;SDS011;25928;51.062;13.752;2022-12-18T14:19:50;17.57;;;10.50;;
815;SDS011;25928;51.062;13.752;2022-12-18T14:22:20;19.17;;;12.60;;
815;SDS011;25928;51.062;13.752;2022-12-18T14:25:13;21.30;;;11.57;;
815;SDS011;25928;51.062;13.752;2022-12-18T14:27:42;25.53;;;13.20;;
815;SDS011;25928;51.062;13.752;2022-12-18T14:33:02;20.43;;;11.00;;
815;SDS011;25928;51.062;13.752;2022-12-18T14:35:38;23.60;;;11.80;;
815;SDS011;25928;51.062;13.752;2022-12-18T14:38:25;23.73;;;12.47;;
815;SDS011;25928;51.062;13.752;2022-12-18T14:40:56;23.13;;;12.17;;
815;SDS011;25928;51.062;13.752;2022-12-18T14:43:39;18.90;;;11.90;;
815;SDS011;25928;51.062;13.752;2022-12-18T14:48:51;23.07;;;13.10;;
815;SDS011;25928;51.062;13.752;2022-12-18T14:51:17;20.10;;;12.27;;
815;SDS011;25928;51.062;13.752;2022-12-18T14:53:52;23.00;;;12.43;;
815;SDS011;25928;51.062;13.752;2022-12-18T14:56:24;25.80;;;12.73;;
815;SDS011;25928;51.062;13.752;2022-12-18T15:01:27;21.87;;;12.90;;
815;SDS011;25928;51.062;13.752;2022-12-18T15:03:58;27.30;;;13.70;;
815;SDS011;25928;51.062;13.752;2022-12-18T15:08:57;19.37;;;10.70;;
815;SDS011;25928;51.062;13.752;2022-12-18T15:11:34;21.80;;;12.50;;
815;SDS011;25928;51.062;13.752;2022-12-18T15:14:28;21.23;;;12.70;;
815;SDS011;25928;51.062;13.752;2022-12-18T15:16:57;22.97;;;13.10;;
815;SDS011;25928;51.062;13.752;2022-12-18T15:19:46;23.07;;;12.33;;
815;SDS011;25928;51.062;13.752;2022-12-18T15:22:30;20.17;;;12.07;;
815;SDS011;25928;51.062;13.752;2022-12-18T15:25:00;28.70;;;13.93;;
815;SDS011;25928;51.062;13.752;2022-12-18T15:27:28;25.57;;;13.30;;
815;SDS011;25928;51.062;13.752;2022-12-18T15:30:15;28.23;;;14.37;;
815;SDS011;25928;51.062;13.752;2022-12-18T15:32:42;23.63;;;12.87;;
815;SDS011;25928;51.062;13.752;2022-12-18T15:37:34;20.97;;;12.30;;
815;SDS011;25928;51.062;13.752;2022-12-18T15:40:00;24.57;;;13.27;;
815;SDS011;25928;51.062;13.752;2022-12-18T15:42:27;23.90;;;13.43;;
815;SDS011;25928;51.062;13.752;2022-12-18T15:45:12;21.83;;;11.60;;
815;SDS011;25928;51.062;13.752;2022-12-18T15:47:38;26.83;;;13.57;;
815;SDS011;25928;51.062;13.752;2022-12-18T15:50:04;27.13;;;12.80;;
815;SDS011;25928;51.062;13.752;2022-12-18T15:52:35;25.00;;;13.57;;
815;SDS011;25928;51.062;13.752;2022-12-18T15:55:16;22.10;;;12.67;;
815;SDS011;25928;51.062;13.752;2022-12-18T15:58:03;22.80;;;12.90;;
815;SDS011;25928;51.062;13.752;2022-12-18T16:00:32;20.17;;;12.50;;
815;SDS011;25928;51.062;13.752;2022-12-18T16:03:00;23.57;;;13.57;;
815;SDS011;25928;51.062;13.752;2022-12-18T16:05:26;26.53;;;14.07;;
815;SDS011;25928;51.062;13.752;2022-12-18T16:07:52;22.23;;;13.20;;
815;SDS011;25928;51.062;13.752;2022-12-18T16:10:18;28.50;;;15.57;;
815;SDS011;25928;51.062;13.752;2022-12-18T16:12:44;21.37;;;13.60;;
815;SDS011;25928;51.062;13.752;2022-12-18T16:15:10;20.77;;;12.20;;
815;SDS011;25928;51.062;13.752;2022-12-18T16:17:38;25.10;;;12.70;;
815;SDS011;25928;51.062;13.752;2022-12-18T16:20:05;21.00;;;13.90;;
815;SDS011;25928;51.062;13.752;2022-12-18T16:22:41;24.77;;;12.47;;
815;SDS011;25928;51.062;13.752;2022-12-18T16:25:15;27.37;;;14.33;;
815;SDS011;25928;51.062;13.752;2022-12-18T16:27:48;27.23;;;15.87;;
815;SDS011;25928;51.062;13.752;2022-12-18T16:30:15;25.33;;;14.70;;
815;SDS011;25928;51.062;13.752;2022-12-18T16:32:43;29.57;;;12.90;;
815;SDS011;25928;51.062;13.752;2022-12-18T16:35:09;23.93;;;13.43;;
815;SDS011;25928;51.062;13.752;2022-12-18T16:37:39;24.27;;;12.30;;
815;SDS011;25928;51.062;13.752;2022-12-18T16:40:09;26.93;;;14.93;;
815;SDS011;25928;51.062;13.752;2022-12-18T16:42:37;22.70;;;12.90;;
815;SDS011;25928;51.062;13.752;2022-12-18T16:45:05;30.30;;;13.80;;